Terminal Aerodrome Forecast
Issued by NWS

Home | Current Version | Previous Version | Text Only | Print | Product List | Glossary On
Versions: 1 2 3 4 5 6 7 8 9 10 11 12 13 14 15
000
FTUS46 KSGX 290520
TAFONT
TAF
KONT 290520Z 2906/3012 25005KT P6SM SKC
     FM291300 VRB04KT 4SM HZ SCT005
     FM291900 VRB04KT P6SM SKC
     FM292100 25011KT P6SM SKC
     FM300400 25005KT P6SM SKC=

USA.gov is the U.S. government's official web portal to all federal, state and local government web resources and services.